Time;durP1;ratioP1;P1;durP2;ratioP2;P2;SDS_P1;SDS_P2;PMS_P1;PMS_P2;Temp;Humidity;BMP_temperature;BMP_pressure;BME280_temperature;BME280_humidity;BME280_pressure;Samples;Min_cycle;Max_cycle;Signal;HPM_P1;HPM_P2
2023/03/01 00:02:15;;;;;;;18.40;9.43;;;;;;;-1.92;100.00;103022.63;5222929;28;20035;-74
2023/03/01 00:04:46;;;;;;;20.75;9.40;;;;;;;-1.94;100.00;103016.53;5217264;28;20082;-74
2023/03/01 00:07:16;;;;;;;19.02;8.88;;;;;;;-1.96;100.00;103020.97;5226214;28;20037;-74
2023/03/01 00:09:46;;;;;;;25.77;8.85;;;;;;;-1.99;100.00;103017.53;5226904;28;20028;-74
2023/03/01 00:12:17;;;;;;;20.85;9.25;;;;;;;-2.01;100.00;103016.69;5226525;28;20115;-74
2023/03/01 00:14:47;;;;;;;21.10;9.57;;;;;;;-2.01;100.00;103019.31;5227344;28;20072;-75
2023/03/01 00:17:18;;;;;;;21.67;9.40;;;;;;;-2.03;100.00;103011.47;5226097;28;20104;-74
2023/03/01 00:19:48;;;;;;;17.63;9.68;;;;;;;-2.05;100.00;103015.91;5226805;28;20086;-74
2023/03/01 00:22:19;;;;;;;21.20;9.07;;;;;;;-2.05;100.00;103017.69;5226627;28;20079;-74
2023/03/01 00:24:49;;;;;;;19.05;8.20;;;;;;;-2.05;100.00;103013.28;5226332;28;20684;-74
2023/03/01 00:27:20;;;;;;;16.00;9.15;;;;;;;-2.06;100.00;103015.91;5208237;28;20055;-74
2023/03/01 00:29:52;;;;;;;16.02;8.05;;;;;;;-2.06;100.00;103023.81;5226570;28;20095;-75
2023/03/01 00:32:22;;;;;;;23.52;9.63;;;;;;;-2.06;100.00;103019.41;5226592;28;20416;-74
2023/03/01 00:34:54;;;;;;;21.27;9.25;;;;;;;-2.11;100.00;103018.63;5226375;28;20028;-75
2023/03/01 00:37:24;;;;;;;18.23;8.45;;;;;;;-2.12;100.00;103016.91;5225545;28;20025;-74
2023/03/01 00:39:55;;;;;;;16.60;9.00;;;;;;;-2.14;100.00;103026.63;5225987;28;20037;-75
2023/03/01 00:42:25;;;;;;;22.25;8.68;;;;;;;-2.17;100.00;103021.41;5226782;28;20481;-74
2023/03/01 00:44:56;;;;;;;18.20;9.63;;;;;;;-2.20;100.00;103014.47;5226132;28;20104;-75
2023/03/01 00:47:29;;;;;;;16.52;8.77;;;;;;;-2.19;100.00;103020.59;5225797;28;20060;-74
2023/03/01 00:49:59;;;;;;;21.98;9.63;;;;;;;-2.18;100.00;103012.66;5208036;28;20033;-74
2023/03/01 00:52:30;;;;;;;22.73;9.40;;;;;;;-2.17;100.00;103018.78;5225968;28;20029;-75
2023/03/01 00:55:04;;;;;;;18.13;9.30;;;;;;;-2.21;100.00;103014.47;5226430;28;20043;-75
2023/03/01 00:57:34;;;;;;;19.77;9.43;;;;;;;-2.21;100.00;103018.00;5225602;28;20104;-75
2023/03/01 01:00:06;;;;;;;16.42;8.30;;;;;;;-2.23;100.00;103013.66;5225545;28;20274;-74
2023/03/01 01:02:37;;;;;;;17.38;8.70;;;;;;;-2.25;100.00;103016.31;5225682;28;20059;-75
2023/03/01 01:05:08;;;;;;;20.70;8.88;;;;;;;-2.27;100.00;103017.22;5217018;28;20114;-75
2023/03/01 01:07:38;;;;;;;20.05;8.52;;;;;;;-2.28;100.00;103020.75;5225356;28;20060;-75
2023/03/01 01:10:12;;;;;;;20.02;8.43;;;;;;;-2.31;100.00;103023.44;5225597;28;20106;-75
2023/03/01 01:12:45;;;;;;;22.15;9.65;;;;;;;-2.35;100.00;103012.13;5225250;28;20040;-75
2023/03/01 01:15:16;;;;;;;15.77;8.77;;;;;;;-2.37;100.00;103013.91;5225335;28;20021;-75
2023/03/01 01:17:46;;;;;;;22.38;9.70;;;;;;;-2.39;100.00;103010.47;5225277;28;20031;-75
2023/03/01 01:20:17;;;;;;;18.83;9.07;;;;;;;-2.40;100.00;103004.34;5225388;28;20597;-74
2023/03/01 01:22:48;;;;;;;16.35;8.30;;;;;;;-2.40;100.00;103003.47;5225533;28;20040;-75
2023/03/01 01:25:19;;;;;;;20.35;9.50;;;;;;;-2.43;100.00;103004.38;5225186;28;20035;-75
2023/03/01 01:27:49;;;;;;;27.05;9.38;;;;;;;-2.44;100.00;103002.66;5224923;28;20397;-75
2023/03/01 01:30:20;;;;;;;20.08;8.98;;;;;;;-2.45;100.00;102990.44;5225258;28;20033;-75
2023/03/01 01:32:50;;;;;;;20.08;9.40;;;;;;;-2.46;100.00;102982.53;5225687;28;20107;-75
2023/03/01 01:35:21;;;;;;;18.48;8.30;;;;;;;-2.46;100.00;102988.69;5225218;28;20021;-75
2023/03/01 01:37:51;;;;;;;18.65;9.38;;;;;;;-2.48;100.00;102984.34;5224508;28;20028;-75
2023/03/01 01:40:21;;;;;;;21.55;9.05;;;;;;;-2.51;100.00;102989.66;5207220;28;20434;-74
2023/03/01 01:42:52;;;;;;;18.80;8.85;;;;;;;-2.54;100.00;102974.81;5225188;28;20025;-75
2023/03/01 01:45:41;;;;;;;16.95;7.75;;;;;;;-2.58;100.00;102980.16;5225190;28;20029;-75
2023/03/01 01:48:18;;;;;;;16.30;8.10;;;;;;;-2.62;100.00;102977.59;5224181;28;20146;-75
2023/03/01 01:50:57;;;;;;;18.70;8.88;;;;;;;-2.61;100.00;102973.22;5225014;28;20021;-75
2023/03/01 01:53:28;;;;;;;17.02;8.23;;;;;;;-2.62;100.00;102966.22;5194867;28;20086;-75
2023/03/01 01:56:01;;;;;;;17.92;8.27;;;;;;;-2.65;100.00;102961.03;5224832;28;20025;-75
2023/03/01 01:58:31;;;;;;;23.17;9.60;;;;;;;-2.68;100.00;102961.09;5206421;28;20036;-75
2023/03/01 02:01:03;;;;;;;18.23;8.95;;;;;;;-2.67;100.00;102952.31;5224686;28;20397;-75
2023/03/01 02:03:37;;;;;;;24.10;9.55;;;;;;;-2.69;100.00;102959.38;5203204;28;20440;-74
2023/03/01 02:06:09;;;;;;;22.00;9.50;;;;;;;-2.70;100.00;102949.75;5223890;28;20366;-75
2023/03/01 02:08:42;;;;;;;19.17;9.23;;;;;;;-2.72;100.00;102941.88;5226808;28;20017;-74
2023/03/01 02:11:32;;;;;;;19.55;9.35;;;;;;;-2.64;100.00;102939.13;5225921;28;20028;-74
2023/03/01 02:14:04;;;;;;;19.00;8.45;;;;;;;-2.60;100.00;102935.53;5207801;28;20021;-74
2023/03/01 02:16:34;;;;;;;21.38;9.13;;;;;;;-2.63;100.00;102939.06;5225113;28;20060;-74
2023/03/01 02:19:07;;;;;;;20.25;8.77;;;;;;;-2.64;100.00;102934.72;5225351;28;20056;-74
2023/03/01 02:21:47;;;;;;;19.13;9.35;;;;;;;-2.65;100.00;102929.50;5233517;28;20059;-74
2023/03/01 02:24:42;;;;;;;18.42;9.13;;;;;;;-2.71;100.00;102927.88;5213476;28;20056;-74
2023/03/01 02:27:13;;;;;;;19.52;9.88;;;;;;;-2.70;100.00;102924.34;5206793;28;20560;-74
2023/03/01 02:29:44;;;;;;;19.83;9.20;;;;;;;-2.76;100.00;102927.09;5225436;28;20112;-74
2023/03/01 02:32:16;;;;;;;21.65;9.02;;;;;;;-2.72;100.00;102906.84;5225141;28;20021;-75
2023/03/01 02:34:47;;;;;;;19.67;9.20;;;;;;;-2.71;100.00;102912.09;5225437;28;20063;-74
2023/03/01 02:37:24;;;;;;;20.92;9.63;;;;;;;-2.74;100.00;102916.53;5224984;28;20040;-75
2023/03/01 02:40:17;;;;;;;20.27;9.63;;;;;;;-2.84;100.00;102913.22;5224526;28;20055;-75
2023/03/01 02:42:51;;;;;;;20.90;9.27;;;;;;;-2.91;100.00;102907.25;5224639;28;20013;-75
2023/03/01 02:45:22;;;;;;;23.98;9.20;;;;;;;-2.94;100.00;102909.06;5206965;28;20025;-75
2023/03/01 02:47:56;;;;;;;19.83;8.48;;;;;;;-2.94;100.00;102912.53;5224076;28;20025;-75
2023/03/01 02:50:27;;;;;;;20.38;9.23;;;;;;;-2.96;100.00;102908.19;5224344;28;20028;-74
2023/03/01 02:53:27;;;;;;;23.92;9.85;;;;;;;-2.95;100.00;102910.81;5224203;28;20044;-75
2023/03/01 02:55:58;;;;;;;21.45;9.02;;;;;;;-2.97;100.00;102912.59;5224555;28;20082;-75
2023/03/01 02:58:29;;;;;;;21.63;9.43;;;;;;;-2.98;100.00;102910.84;5224314;28;20079;-74
2023/03/01 03:01:00;;;;;;;24.77;9.80;;;;;;;-2.97;100.00;102903.84;5223634;28;20041;-75
2023/03/01 03:03:31;;;;;;;18.02;8.88;;;;;;;-3.01;100.00;102889.94;5224158;28;20016;-75
2023/03/01 03:06:01;;;;;;;21.08;9.45;;;;;;;-3.04;100.00;102903.09;5224093;28;20029;-75
2023/03/01 03:08:37;;;;;;;20.27;9.20;;;;;;;-3.07;100.00;102907.53;5206984;28;20100;-74
2023/03/01 03:11:07;;;;;;;19.55;9.88;;;;;;;-3.10;100.00;102899.75;5223815;28;20112;-74
2023/03/01 03:13:47;;;;;;;21.88;9.68;;;;;;;-3.14;100.00;102906.78;5223571;28;20416;-74
2023/03/01 03:16:19;;;;;;;21.00;9.32;;;;;;;-3.16;100.00;102906.84;5206243;28;20027;-74
2023/03/01 03:18:50;;;;;;;19.50;9.68;;;;;;;-3.16;100.00;102905.97;5223594;28;20025;-74
2023/03/01 03:21:21;;;;;;;20.92;9.57;;;;;;;-3.20;100.00;102915.66;5224268;28;20025;-74
2023/03/01 03:23:55;;;;;;;22.00;9.57;;;;;;;-3.24;100.00;102921.84;5223394;28;20028;-74
2023/03/01 03:26:29;;;;;;;24.17;10.55;;;;;;;-3.27;100.00;102907.91;5223912;28;20028;-75
2023/03/01 03:29:00;;;;;;;22.25;10.20;;;;;;;-3.28;100.00;102919.28;5223969;28;20032;-74
2023/03/01 03:31:30;;;;;;;21.13;10.05;;;;;;;-3.31;100.00;102914.97;5205914;28;20025;-74
2023/03/01 03:34:01;;;;;;;21.75;10.25;;;;;;;-3.30;100.00;102900.97;5223746;28;20025;-74
2023/03/01 03:36:31;;;;;;;23.67;10.13;;;;;;;-3.30;100.00;102900.09;5222758;28;20029;-74
2023/03/01 03:39:02;;;;;;;22.55;10.25;;;;;;;-3.30;100.00;102897.47;5227147;28;20047;-75
2023/03/01 03:41:34;;;;;;;19.80;10.02;;;;;;;-3.30;100.00;102902.72;5227419;28;20029;-74
2023/03/01 03:44:05;;;;;;;21.70;10.02;;;;;;;-3.31;100.00;102904.47;5227806;28;20051;-74
2023/03/01 03:46:35;;;;;;;19.63;9.65;;;;;;;-3.31;100.00;102904.47;5227300;28;20025;-74
2023/03/01 03:49:06;;;;;;;22.02;9.20;;;;;;;-3.32;100.00;102901.88;5227106;28;20036;-74
2023/03/01 03:51:36;;;;;;;20.08;9.80;;;;;;;-3.35;100.00;102894.06;5227545;28;20031;-74
2023/03/01 03:54:07;;;;;;;22.27;9.60;;;;;;;-3.38;100.00;102895.81;5227358;28;20424;-74
2023/03/01 03:56:37;;;;;;;20.65;9.95;;;;;;;-3.41;100.00;102893.28;5227069;28;20029;-74
2023/03/01 03:59:09;;;;;;;20.13;9.23;;;;;;;-3.43;100.00;102891.56;5227092;28;20032;-74
2023/03/01 04:01:39;;;;;;;20.85;9.98;;;;;;;-3.47;100.00;102888.09;5226906;28;20071;-74
2023/03/01 04:04:10;;;;;;;21.27;9.80;;;;;;;-3.51;100.00;102889.09;5218154;28;20028;-74
2023/03/01 04:06:40;;;;;;;22.30;10.30;;;;;;;-3.55;100.00;102883.91;5209238;28;20583;-74
2023/03/01 04:09:11;;;;;;;19.98;9.20;;;;;;;-3.56;100.00;102885.66;5227077;28;20033;-74
2023/03/01 04:11:41;;;;;;;22.10;10.35;;;;;;;-3.58;100.00;102886.56;5226911;28;20032;-74
2023/03/01 04:14:12;;;;;;;23.65;10.57;;;;;;;-3.58;100.00;102887.44;5208950;28;20641;-74
2023/03/01 04:16:42;;;;;;;21.63;9.60;;;;;;;-3.58;100.00;102887.44;5226736;28;20107;-74
2023/03/01 04:19:15;;;;;;;21.17;9.27;;;;;;;-3.57;100.00;102885.66;5226884;28;20021;-74
2023/03/01 04:21:45;;;;;;;22.42;9.60;;;;;;;-3.58;100.00;102881.31;5226779;28;20029;-74
2023/03/01 04:24:16;;;;;;;23.05;9.88;;;;;;;-3.58;100.00;102891.81;5208760;28;20036;-74
2023/03/01 04:26:46;;;;;;;22.13;10.38;;;;;;;-3.59;100.00;102895.34;5226115;28;20021;-74
2023/03/01 04:29:17;;;;;;;20.08;9.98;;;;;;;-3.61;100.00;102894.47;5209171;28;20029;-74
2023/03/01 04:31:48;;;;;;;20.45;9.60;;;;;;;-3.62;100.00;102890.13;5226372;28;20025;-74
2023/03/01 04:34:19;;;;;;;19.35;8.90;;;;;;;-3.63;100.00;102885.78;5208983;28;20039;-74
2023/03/01 04:36:50;;;;;;;20.50;9.35;;;;;;;-3.62;100.00;102884.88;5225657;28;20021;-74
2023/03/01 04:39:20;;;;;;;24.70;10.48;;;;;;;-3.63;100.00;102888.41;5226567;28;20033;-74
2023/03/01 04:41:51;;;;;;;17.27;9.55;;;;;;;-3.67;100.00;102877.94;5226395;28;20501;-74
2023/03/01 04:44:21;;;;;;;22.38;9.68;;;;;;;-3.68;100.00;102883.22;5226307;28;20066;-74
2023/03/01 04:46:52;;;;;;;25.42;9.88;;;;;;;-3.67;100.00;102877.09;5225953;28;20504;-74
2023/03/01 04:49:22;;;;;;;22.23;10.82;;;;;;;-3.68;100.00;102880.59;5207310;28;20032;-74
2023/03/01 04:51:53;;;;;;;21.90;9.18;;;;;;;-3.73;100.00;102879.81;5226579;28;20199;-74
2023/03/01 04:54:23;;;;;;;23.55;10.02;;;;;;;-3.76;100.00;102872.88;5226050;28;20024;-74
2023/03/01 04:56:54;;;;;;;19.65;9.52;;;;;;;-3.75;100.00;102876.38;5208259;28;20032;-74
2023/03/01 04:59:25;;;;;;;23.67;10.75;;;;;;;-3.72;100.00;102878.91;5226015;28;20111;-74
2023/03/01 05:01:56;;;;;;;22.70;9.52;;;;;;;-3.74;100.00;102870.22;5225509;28;20024;-74
2023/03/01 05:04:26;;;;;;;21.42;9.73;;;;;;;-3.76;100.00;102867.63;5217502;28;20025;-74
2023/03/01 05:06:58;;;;;;;18.27;9.32;;;;;;;-3.77;100.00;102859.78;5208094;28;20100;-74
2023/03/01 05:09:29;;;;;;;19.02;8.85;;;;;;;-3.78;100.00;102858.03;5212484;28;20460;-74
2023/03/01 05:11:59;;;;;;;27.73;9.35;;;;;;;-3.81;100.00;102860.75;5226196;28;20111;-74
2023/03/01 05:14:32;;;;;;;20.50;9.27;;;;;;;-3.84;100.00;102861.63;5225622;28;20036;-74
2023/03/01 05:17:03;;;;;;;19.92;9.45;;;;;;;-3.86;100.00;102852.94;5225200;28;20013;-74
2023/03/01 05:19:34;;;;;;;21.38;9.60;;;;;;;-3.89;100.00;102850.34;5225705;28;20060;-74
2023/03/01 05:22:05;;;;;;;20.30;9.57;;;;;;;-3.91;100.00;102845.16;5225500;28;20031;-74
2023/03/01 05:24:36;;;;;;;26.15;10.10;;;;;;;-3.94;100.00;102833.84;5225598;28;20025;-74
2023/03/01 05:27:06;;;;;;;22.15;10.30;;;;;;;-3.98;100.00;102832.13;5224774;28;20393;-74
2023/03/01 05:29:39;;;;;;;19.45;9.30;;;;;;;-3.99;100.00;102828.66;5207963;28;20147;-74
2023/03/01 05:32:14;;;;;;;23.73;9.52;;;;;;;-4.01;100.00;102830.44;5207509;28;20024;-74
2023/03/01 05:34:46;;;;;;;26.17;10.43;;;;;;;-4.02;100.00;102833.94;5207720;28;20025;-74
2023/03/01 05:37:16;;;;;;;20.63;10.05;;;;;;;-4.03;100.00;102836.59;5224632;28;20025;-74
2023/03/01 05:39:50;;;;;;;23.45;9.35;;;;;;;-4.07;100.00;102838.38;5225177;28;20384;-74
2023/03/01 05:42:20;;;;;;;20.15;9.05;;;;;;;-4.10;100.00;102835.84;5207578;28;20036;-74
2023/03/01 05:44:51;;;;;;;20.23;10.13;;;;;;;-4.09;100.00;102837.56;5224849;28;20025;-74
2023/03/01 05:47:21;;;;;;;22.42;10.27;;;;;;;-4.08;100.00;102835.81;5224693;28;20029;-75
2023/03/01 05:49:52;;;;;;;25.40;10.00;;;;;;;-4.09;100.00;102839.31;5224477;28;20382;-76
2023/03/01 05:52:22;;;;;;;28.25;10.65;;;;;;;-4.08;100.00;102841.91;5225119;28;20037;-74
2023/03/01 05:54:53;;;;;;;23.02;9.55;;;;;;;-4.08;100.00;102844.53;5225009;28;20032;-75
2023/03/01 05:57:23;;;;;;;25.85;10.57;;;;;;;-4.05;100.00;102836.63;5207100;28;20029;-75
2023/03/01 05:59:54;;;;;;;23.65;10.35;;;;;;;-4.04;100.00;102832.25;5224835;28;20021;-74
2023/03/01 06:02:24;;;;;;;23.60;9.32;;;;;;;-4.04;100.00;102838.34;5226958;28;20029;-75
2023/03/01 06:04:55;;;;;;;26.73;10.40;;;;;;;-4.03;100.00;102841.84;5218181;28;20158;-75
2023/03/01 06:07:25;;;;;;;24.05;9.95;;;;;;;-4.05;100.00;102831.38;5225598;28;20029;-75
2023/03/01 06:09:56;;;;;;;22.17;10.07;;;;;;;-4.07;100.00;102827.91;5225391;28;20046;-74
2023/03/01 06:12:30;;;;;;;26.10;9.68;;;;;;;-4.07;100.00;102829.66;5225191;28;20029;-75
2023/03/01 06:15:03;;;;;;;21.98;10.07;;;;;;;-4.09;100.00;102829.69;5224705;28;20420;-74
2023/03/01 06:17:37;;;;;;;22.52;9.05;;;;;;;-4.10;100.00;102825.34;5224328;28;20029;-75
2023/03/01 06:20:14;;;;;;;24.92;9.50;;;;;;;-4.10;100.00;102820.09;5224544;28;20066;-75
2023/03/01 06:22:46;;;;;;;27.80;9.93;;;;;;;-4.10;100.00;102819.25;5207096;28;20552;-74
2023/03/01 06:25:19;;;;;;;22.33;9.55;;;;;;;-4.10;100.00;102820.09;5224216;28;20025;-75
2023/03/01 06:27:51;;;;;;;23.70;9.63;;;;;;;-4.11;100.00;102812.28;5224318;28;20069;-75
2023/03/01 06:30:24;;;;;;;22.17;10.23;;;;;;;-4.12;100.00;102815.75;5206418;28;20029;-75
2023/03/01 06:33:00;;;;;;;21.30;9.48;;;;;;;-4.14;100.00;102813.16;5224433;28;20135;-75
2023/03/01 06:35:31;;;;;;;26.75;10.20;;;;;;;-4.14;100.00;102807.94;5206358;28;20043;-75
2023/03/01 06:38:03;;;;;;;22.58;9.95;;;;;;;-4.13;100.00;102814.91;5223723;28;20025;-75
2023/03/01 06:40:35;;;;;;;24.08;10.50;;;;;;;-4.11;100.00;102813.13;5224292;28;20029;-75
2023/03/01 06:43:07;;;;;;;42.95;11.63;;;;;;;-4.07;100.00;102819.16;5206278;28;20139;-75
2023/03/01 06:45:37;;;;;;;30.88;10.40;;;;;;;-4.04;100.00;102820.00;5224151;28;20021;-75
2023/03/01 06:48:07;;;;;;;23.73;10.50;;;;;;;-3.97;100.00;102828.63;5223102;28;20401;-74
2023/03/01 06:50:38;;;;;;;23.52;9.70;;;;;;;-3.85;100.00;102828.44;5224063;28;20424;-75
2023/03/01 06:53:09;;;;;;;24.48;9.65;;;;;;;-3.70;100.00;102828.19;5223953;28;20082;-75
2023/03/01 06:55:39;;;;;;;25.80;9.88;;;;;;;-3.60;100.00;102835.91;5224128;28;20107;-75
2023/03/01 06:58:10;;;;;;;21.33;10.13;;;;;;;-3.52;100.00;102842.72;5223410;28;20017;-75
2023/03/01 07:00:42;;;;;;;21.77;9.63;;;;;;;-3.43;100.00;102834.69;5223641;28;20438;-75
2023/03/01 07:03:13;;;;;;;23.88;10.00;;;;;;;-3.31;100.00;102844.09;5202110;28;20038;-75
2023/03/01 07:05:44;;;;;;;26.13;10.38;;;;;;;-3.23;100.00;102838.69;5218514;28;20078;-74
2023/03/01 07:08:14;;;;;;;25.77;10.60;;;;;;;-3.13;100.00;102843.75;5223582;28;20025;-75
2023/03/01 07:10:45;;;;;;;25.98;10.48;;;;;;;-2.99;100.00;102845.25;5223628;28;20028;-75
2023/03/01 07:13:15;;;;;;;28.23;9.90;;;;;;;-2.78;100.00;102838.69;5227760;28;20025;-75
2023/03/01 07:15:46;;;;;;;30.05;11.60;;;;;;;-2.56;100.00;102846.97;5230466;28;20021;-75
2023/03/01 07:18:16;;;;;;;27.85;11.63;;;;;;;-2.33;100.00;102849.97;5230334;28;20024;-74
2023/03/01 07:20:47;;;;;;;32.83;12.25;;;;;;;-1.93;100.00;102854.28;5212628;28;20039;-75
2023/03/01 07:23:17;;;;;;;27.00;11.45;;;;;;;-1.33;100.00;102856.28;5212778;28;20028;-75
2023/03/01 07:26:06;;;;;;;27.63;11.65;;;;;;;-0.57;100.00;102840.94;5229957;28;20032;-75
2023/03/01 07:28:38;;;;;;;23.75;10.25;;;;;;;-0.08;100.00;102838.56;5230252;28;20029;-75
2023/03/01 07:31:09;;;;;;;22.25;9.85;;;;;;;0.25;100.00;102833.94;5230549;28;20021;-75
2023/03/01 07:33:39;;;;;;;21.92;10.02;;;;;;;0.38;100.00;102829.97;5230382;28;20028;-75
2023/03/01 07:36:10;;;;;;;21.67;10.15;;;;;;;0.53;100.00;102831.25;5230206;28;20025;-75
2023/03/01 07:38:41;;;;;;;18.73;10.07;;;;;;;0.56;100.00;102835.56;5230217;28;20033;-75
2023/03/01 07:41:11;;;;;;;23.02;9.48;;;;;;;0.65;100.00;102829.94;5230567;28;20079;-75
2023/03/01 07:43:41;;;;;;;23.83;9.85;;;;;;;0.83;100.00;102821.38;5230498;28;20520;-75
2023/03/01 07:46:12;;;;;;;22.52;9.15;;;;;;;1.01;100.00;102825.13;5230419;28;20029;-75
2023/03/01 07:48:43;;;;;;;19.20;9.90;;;;;;;1.23;100.00;102825.19;5229539;28;20029;-75
2023/03/01 07:51:13;;;;;;;23.33;8.95;;;;;;;1.48;100.00;102833.91;5212459;28;20024;-75
2023/03/01 07:53:47;;;;;;;21.48;9.10;;;;;;;1.78;100.00;102825.69;5230431;28;20036;-75
2023/03/01 07:56:19;;;;;;;21.13;9.57;;;;;;;2.15;100.00;102837.44;5230218;28;20100;-75
2023/03/01 07:58:49;;;;;;;20.27;9.25;;;;;;;2.38;100.00;102836.50;5232251;28;20024;-75
2023/03/01 08:01:22;;;;;;;22.52;9.27;;;;;;;2.71;100.00;102837.69;5232925;28;20478;-75
2023/03/01 08:03:52;;;;;;;15.15;8.55;;;;;;;2.96;100.00;102836.59;5222483;28;20491;-75
2023/03/01 08:06:23;;;;;;;17.95;8.85;;;;;;;3.08;100.00;102849.31;5230857;28;20159;-75
2023/03/01 08:08:55;;;;;;;14.43;8.60;;;;;;;3.22;100.00;102846.03;5231343;28;20081;-76
2023/03/01 08:11:27;;;;;;;15.13;8.45;;;;;;;3.40;100.00;102849.63;5230146;28;20033;-75
2023/03/01 08:13:58;;;;;;;21.92;8.70;;;;;;;3.48;100.00;102848.34;5230454;28;20163;-76
2023/03/01 08:16:28;;;;;;;23.55;9.48;;;;;;;3.50;100.00;102837.66;5230300;28;20481;-76
2023/03/01 08:19:05;;;;;;;20.33;9.55;;;;;;;3.57;100.00;102841.75;5230429;28;20568;-76
2023/03/01 08:21:36;;;;;;;18.80;8.65;;;;;;;3.81;100.00;102837.06;5230489;28;20482;-75
2023/03/01 08:24:07;;;;;;;17.13;9.60;;;;;;;3.90;100.00;102837.47;5209518;28;20079;-75
2023/03/01 08:26:37;;;;;;;16.63;8.82;;;;;;;4.19;100.00;102840.50;5226229;28;20017;-76
2023/03/01 08:29:08;;;;;;;18.98;8.55;;;;;;;4.34;100.00;102844.19;5227004;28;20086;-76
2023/03/01 08:31:39;;;;;;;13.93;8.90;;;;;;;4.40;100.00;102850.03;5209015;28;20393;-76
2023/03/01 08:34:13;;;;;;;15.80;8.90;;;;;;;4.35;100.00;102857.38;5209334;28;20470;-76
2023/03/01 08:36:46;;;;;;;22.33;9.60;;;;;;;4.64;100.00;102839.97;5226030;28;20052;-76
2023/03/01 08:39:19;;;;;;;13.73;8.45;;;;;;;4.75;100.00;102846.53;5208948;28;20039;-76
2023/03/01 08:41:49;;;;;;;17.33;9.38;;;;;;;4.68;100.00;102840.69;5226396;28;20017;-76
2023/03/01 08:44:20;;;;;;;17.35;9.23;;;;;;;4.88;100.00;102832.50;5226210;28;20401;-76
2023/03/01 08:46:53;;;;;;;18.27;8.98;;;;;;;5.13;100.00;102829.41;5225955;28;20021;-76
2023/03/01 08:49:24;;;;;;;17.70;9.30;;;;;;;4.89;100.00;102826.25;5208384;28;20108;-76
2023/03/01 08:51:54;;;;;;;15.85;8.90;;;;;;;5.03;100.00;102827.31;5208591;28;20575;-76
2023/03/01 08:54:25;;;;;;;19.05;9.65;;;;;;;5.30;100.00;102823.16;5226092;28;20025;-76
2023/03/01 08:56:55;;;;;;;16.80;9.18;;;;;;;5.43;100.00;102823.34;5225832;28;20391;-76
2023/03/01 08:59:26;;;;;;;21.13;10.38;;;;;;;5.60;100.00;102823.25;5225245;28;20024;-76
2023/03/01 09:01:57;;;;;;;17.85;9.57;;;;;;;5.47;100.00;102816.91;5226235;28;20722;-76
2023/03/01 09:04:27;;;;;;;15.30;9.07;;;;;;;5.60;100.00;102811.75;5217351;28;20549;-76
2023/03/01 09:06:58;;;;;;;15.82;8.98;;;;;;;5.60;100.00;102817.94;5225589;28;20033;-76
2023/03/01 09:09:28;;;;;;;17.60;9.20;;;;;;;5.40;100.00;102802.22;5207942;28;20439;-76
2023/03/01 09:11:59;;;;;;;16.85;9.80;;;;;;;5.80;100.00;102790.19;5225398;28;20489;-76
2023/03/01 09:14:30;;;;;;;16.92;9.40;;;;;;;5.69;100.00;102797.94;5226089;28;20024;-76
2023/03/01 09:17:02;;;;;;;19.35;9.63;;;;;;;6.06;100.00;102785.19;5225217;28;20017;-76
2023/03/01 09:19:33;;;;;;;15.63;8.88;;;;;;;6.39;100.00;102782.34;5207881;28;20103;-76
2023/03/01 09:22:04;;;;;;;17.88;9.15;;;;;;;6.89;100.00;102789.06;5225598;28;20127;-76
2023/03/01 09:24:35;;;;;;;19.55;9.68;;;;;;;6.93;100.00;102775.44;5225316;28;20801;-76
2023/03/01 09:27:08;;;;;;;19.13;9.32;;;;;;;7.05;100.00;102768.47;5224981;28;20040;-76
2023/03/01 09:29:39;;;;;;;14.45;8.40;;;;;;;7.00;100.00;102763.41;5207682;28;20052;-76
2023/03/01 09:32:10;;;;;;;17.30;8.45;;;;;;;7.10;100.00;102761.03;5225400;28;20029;-76
2023/03/01 09:37:34;;;;;;;13.98;8.68;;;;;;;7.21;98.07;102755.00;5225038;28;20128;-76
2023/03/01 09:40:06;;;;;;;18.13;8.60;;;;;;;7.09;98.25;102758.47;5224955;28;20040;-76
2023/03/01 09:42:49;;;;;;;13.00;8.10;;;;;;;6.88;97.76;102760.69;5223812;28;20039;-76
2023/03/01 09:45:27;;;;;;;16.63;8.10;;;;;;;7.03;100.00;102749.03;5200049;28;20036;-76
2023/03/01 09:47:58;;;;;;;15.70;8.10;;;;;;;7.27;100.00;102741.25;5203739;28;20021;-76
2023/03/01 09:50:35;;;;;;;17.38;9.02;;;;;;;7.23;98.63;102737.94;5212896;28;20032;-76
2023/03/01 09:53:11;;;;;;;15.10;8.07;;;;;;;7.70;100.00;102735.81;5224089;28;20496;-76
2023/03/01 09:56:00;;;;;;;14.52;8.68;;;;;;;8.04;98.99;102737.09;5222948;28;20037;-76
2023/03/01 09:58:41;;;;;;;14.35;8.02;;;;;;;7.49;90.45;102735.41;5222915;28;20112;-76
2023/03/01 10:01:35;;;;;;;17.60;9.55;;;;;;;6.98;91.37;102744.00;5223777;28;20444;-76
2023/03/01 10:04:40;;;;;;;19.65;8.80;;;;;;;6.66;90.69;102737.97;5215170;28;20017;-76
2023/03/01 10:07:17;;;;;;;18.33;8.85;;;;;;;5.65;97.13;102732.47;5222609;28;20025;-76
2023/03/01 10:09:48;;;;;;;17.92;8.32;;;;;;;6.01;100.00;102723.31;5223715;28;20021;-76
2023/03/01 10:12:26;;;;;;;19.33;9.00;;;;;;;6.21;100.00;102728.31;5223182;28;20036;-76
2023/03/01 10:15:30;;;;;;;13.85;8.63;;;;;;;6.06;98.27;102734.56;5205856;28;20031;-76
2023/03/01 10:18:09;;;;;;;25.77;9.32;;;;;;;6.00;99.75;102725.13;5212692;28;20036;-76
2023/03/01 10:20:50;;;;;;;18.50;8.85;;;;;;;6.12;100.00;102723.53;5222677;28;20032;-76
2023/03/01 10:23:24;;;;;;;15.52;9.07;;;;;;;5.95;100.00;102717.41;5205440;28;20041;-76
2023/03/01 10:26:13;;;;;;;20.30;9.55;;;;;;;6.10;100.00;102720.09;5204854;28;20032;-76
2023/03/01 10:29:04;;;;;;;18.85;9.35;;;;;;;6.15;100.00;102718.03;5222754;28;20033;-76
2023/03/01 10:31:40;;;;;;;17.98;9.55;;;;;;;6.22;100.00;102714.03;5222753;28;20102;-76
2023/03/01 10:34:15;;;;;;;22.50;9.82;;;;;;;6.13;100.00;102719.94;5223186;28;20397;-76
2023/03/01 10:36:50;;;;;;;15.73;9.25;;;;;;;6.33;100.00;102711.59;5222199;28;20016;-76
2023/03/01 10:39:23;;;;;;;15.00;9.25;;;;;;;6.37;100.00;102707.75;5222391;28;20059;-76
2023/03/01 10:41:58;;;;;;;18.00;9.10;;;;;;;6.38;100.00;102709.50;5222876;28;20029;-76
2023/03/01 10:44:48;;;;;;;15.23;8.40;;;;;;;6.55;100.00;102710.28;5222449;28;20116;-76
2023/03/01 10:47:24;;;;;;;18.98;9.00;;;;;;;6.73;100.00;102706.47;5221484;28;20505;-76
2023/03/01 10:50:12;;;;;;;17.60;8.57;;;;;;;6.84;100.00;102697.78;5221918;28;20082;-76
2023/03/01 10:52:57;;;;;;;17.65;8.63;;;;;;;6.96;98.66;102702.34;5223006;28;20489;-76
2023/03/01 10:55:46;;;;;;;16.10;8.48;;;;;;;6.85;94.77;102705.69;5222742;28;20029;-76
2023/03/01 10:58:22;;;;;;;16.63;8.98;;;;;;;6.22;99.09;102690.91;5209461;28;20057;-76
2023/03/01 11:00:56;;;;;;;16.33;8.45;;;;;;;6.27;100.00;102689.75;5222491;28;20044;-76
2023/03/01 11:03:30;;;;;;;15.00;8.50;;;;;;;6.60;100.00;102692.16;5216839;28;20095;-76
2023/03/01 11:06:04;;;;;;;18.38;8.73;;;;;;;6.67;98.71;102689.00;5220056;28;20436;-76
2023/03/01 11:08:54;;;;;;;14.48;8.13;;;;;;;6.76;99.63;102682.25;5221386;28;20025;-76
2023/03/01 11:11:31;;;;;;;19.42;8.35;;;;;;;6.94;100.00;102686.44;5220000;28;20029;-76
2023/03/01 11:14:07;;;;;;;15.27;8.52;;;;;;;7.10;98.20;102677.44;5222656;28;20021;-76
2023/03/01 11:16:41;;;;;;;15.93;8.45;;;;;;;7.11;90.77;102676.47;5203977;28;20020;-76
2023/03/01 11:19:11;;;;;;;17.23;8.27;;;;;;;6.81;93.11;102680.16;5204123;28;20592;-76
2023/03/01 11:22:05;;;;;;;17.05;8.27;;;;;;;6.96;91.39;102679.16;5222191;28;20115;-76
2023/03/01 11:24:53;;;;;;;15.85;8.52;;;;;;;7.15;96.23;102675.31;5222519;28;20111;-76
2023/03/01 11:27:28;;;;;;;16.00;8.27;;;;;;;7.29;91.67;102672.63;5221241;28;20448;-76
2023/03/01 11:29:59;;;;;;;;;;;;;;;7.35;88.34;102669.53;5222347;28;20033;-76
2023/03/01 11:32:39;;;;;;;20.27;8.55;;;;;;;7.30;88.49;102660.97;5222649;28;20595;-76
2023/03/01 11:35:18;;;;;;;21.10;8.65;;;;;;;7.35;90.14;102666.03;5222171;28;20461;-76
2023/03/01 11:37:58;;;;;;;15.43;8.48;;;;;;;7.25;87.20;102669.28;5221418;28;20042;-76
2023/03/01 11:40:40;;;;;;;13.30;8.05;;;;;;;7.11;84.75;102660.47;5209565;28;20108;-76
2023/03/01 11:43:26;;;;;;;14.23;7.95;;;;;;;6.92;87.55;102663.44;5221986;28;20385;-76